Anderson, Ohio
Current Conditions -  °F | °C
As of 1:53 AM on Monday 22 Dec 2014 (Local Time) from KLUK Reporting Station
Haze Haze  
Wind Chill: 23°   Ceiling: 5000
Heat Index: 23°   Visibility: 5mi
Dew Point: 21°   Wind: 0mph
Humidity: 92%   Direction: NA
Pressure: 30.1"   Gusts: NA
Location:  39.0659°N, 84.278°W
Report Text: KLUK 220653Z AUTO 00000KT 5SM BR OVC050 M05/M06 A3010 RMK AO2 SLP196 T10501061
Loading
Personal Weather Stations






























Interactive Weather Map New forecast layout! Learn more

10-Day Weather Forecast

Advertisements
Track Severe Weather on mobile